Terminal Aerodrome Forecast
Issued by NWS Glasgow, MT

Home | Current Version | Previous Version | Text Only | Print | Product List | Glossary On
Versions: 1 2 3 4 5 6 7 8 9 10 11 12 13
000
FTUS45 KGGW 211732
TAFGGW
TAF
KGGW 211732Z 2118/2218 34010KT P6SM SCT110
     FM220200 02005KT P6SM FEW140
     FM220500 08007KT P6SM FEW160
     FM221500 12009KT P6SM SCT130=

USA.gov is the U.S. government's official web portal to all federal, state and local government web resources and services.